Time;durP1;ratioP1;P1;durP2;ratioP2;P2;SDS_P1;SDS_P2;PMS_P1;PMS_P2;Temp;Humidity;BMP_temperature;BMP_pressure;BME280_temperature;BME280_humidity;BME280_pressure;Samples;Min_cycle;Max_cycle;Signal;HPM_P1;HPM_P2
2023/01/16 00:01:53;;;;;;;8.33;4.93;;;6.70;99.90;;;;;;5028988;28;20250;-84
2023/01/16 00:04:42;;;;;;;7.80;5.17;;;6.70;99.90;;;;;;5029415;28;20237;-82
2023/01/16 00:07:32;;;;;;;9.37;5.00;;;6.60;99.90;;;;;;5036140;28;20227;-85
2023/01/16 00:10:21;;;;;;;6.00;4.17;;;6.60;99.90;;;;;;5031237;28;20621;-83
2023/01/16 00:13:11;;;;;;;7.83;4.67;;;6.60;99.90;;;;;;5013513;28;20214;-83
2023/01/16 00:16:00;;;;;;;8.17;4.80;;;6.60;99.90;;;;;;5017779;28;20640;-83
2023/01/16 00:18:49;;;;;;;8.77;4.80;;;6.60;99.90;;;;;;5016432;28;20242;-83
2023/01/16 00:21:38;;;;;;;6.50;4.30;;;6.60;99.90;;;;;;5024167;28;20679;-83
2023/01/16 00:24:28;;;;;;;8.40;4.70;;;6.60;99.90;;;;;;5022403;28;20228;-83
2023/01/16 00:27:17;;;;;;;8.70;4.50;;;6.60;99.90;;;;;;5028198;28;20242;-83
2023/01/16 00:30:08;;;;;;;6.73;4.90;;;6.60;99.90;;;;;;5036247;28;20743;-83
2023/01/16 00:32:56;;;;;;;8.70;4.90;;;6.60;99.90;;;;;;5013364;28;20248;-83
2023/01/16 00:35:46;;;;;;;7.90;4.30;;;6.60;99.90;;;;;;5035356;28;20227;-83
2023/01/16 00:38:35;;;;;;;6.10;4.00;;;6.60;99.90;;;;;;5041304;28;20766;-84
2023/01/16 00:41:26;;;;;;;10.97;4.50;;;6.50;99.90;;;;;;5038093;28;20237;-84
2023/01/16 00:44:15;;;;;;;7.20;4.87;;;6.50;99.90;;;;;;5020825;28;20229;-84
2023/01/16 00:47:05;;;;;;;6.57;4.87;;;6.50;99.90;;;;;;5017280;28;20226;-84
2023/01/16 00:49:54;;;;;;;6.33;4.43;;;6.50;99.90;;;;;;5022695;28;20322;-83
2023/01/16 00:52:43;;;;;;;8.47;4.60;;;6.50;99.90;;;;;;5019304;28;20216;-85
2023/01/16 00:55:34;;;;;;;7.83;5.00;;;6.50;99.90;;;;;;5009262;28;20252;-84
2023/01/16 00:58:24;;;;;;;8.60;5.30;;;6.50;99.90;;;;;;5026371;28;20214;-84
2023/01/16 01:01:13;;;;;;;7.33;5.00;;;6.40;99.90;;;;;;5025427;28;20357;-83
2023/01/16 01:04:02;;;;;;;6.90;5.07;;;6.30;99.90;;;;;;5027183;28;20233;-83
2023/01/16 01:06:51;;;;;;;7.80;5.20;;;6.30;99.90;;;;;;5029372;28;20230;-83
2023/01/16 01:09:40;;;;;;;8.50;5.10;;;6.30;99.90;;;;;;5028417;28;21078;-81
2023/01/16 01:12:29;;;;;;;11.17;5.60;;;6.30;99.90;;;;;;5042189;28;20259;-82
2023/01/16 01:15:20;;;;;;;8.13;5.60;;;6.30;99.90;;;;;;5033567;28;20217;-85
2023/01/16 01:18:09;;;;;;;7.03;5.63;;;6.30;99.90;;;;;;5028651;28;20226;-81
2023/01/16 01:21:01;;;;;;;8.07;5.80;;;6.20;99.90;;;;;;5035953;28;20283;-82
2023/01/16 01:23:49;;;;;;;10.30;6.40;;;6.30;99.90;;;;;;5026248;28;20303;-83
2023/01/16 01:26:39;;;;;;;8.03;5.80;;;6.30;99.90;;;;;;5015939;28;20228;-84
2023/01/16 01:29:27;;;;;;;8.93;6.10;;;6.20;99.90;;;;;;5017025;28;20233;-83
2023/01/16 01:32:18;;;;;;;9.00;5.97;;;6.10;99.90;;;;;;5021979;28;20230;-84
2023/01/16 01:35:08;;;;;;;8.90;6.20;;;6.10;99.90;;;;;;5036423;28;20299;-83
2023/01/16 01:37:57;;;;;;;9.90;6.57;;;6.10;99.90;;;;;;5038588;28;20782;-82
2023/01/16 01:40:46;;;;;;;7.77;6.10;;;6.20;99.90;;;;;;5027965;28;20217;-82
2023/01/16 01:43:44;;;;;;;9.73;6.20;;;6.20;99.90;;;;;;5040184;28;20272;-82
2023/01/16 01:46:41;;;;;;;9.57;6.23;;;6.10;99.90;;;;;;5031557;28;20854;-82
2023/01/16 01:49:32;;;;;;;8.67;6.50;;;6.10;99.90;;;;;;5023033;28;20652;-81
2023/01/16 01:52:22;;;;;;;11.63;6.70;;;6.10;99.90;;;;;;5028586;28;20280;-83
2023/01/16 01:55:12;;;;;;;9.30;5.90;;;6.10;99.90;;;;;;5039344;28;20292;-84
2023/01/16 01:58:04;;;;;;;8.73;6.03;;;6.20;99.90;;;;;;5018562;28;20227;-82
2023/01/16 02:00:54;;;;;;;9.70;6.07;;;6.20;99.90;;;;;;5024149;28;21078;-87
2023/01/16 02:03:50;;;;;;;8.07;6.13;;;6.20;99.90;;;;;;5015678;28;20261;-83
2023/01/16 02:06:45;;;;;;;10.03;6.40;;;6.10;99.90;;;;;;5043280;28;20221;-82
2023/01/16 02:09:34;;;;;;;11.33;6.37;;;6.10;99.90;;;;;;5051489;28;20220;-81
2023/01/16 02:12:23;;;;;;;8.80;6.33;;;6.00;99.90;;;;;;5023638;28;20222;-82
2023/01/16 02:15:12;;;;;;;7.87;5.60;;;5.90;99.90;;;;;;5027730;28;20224;-83
2023/01/16 02:21:18;;;;;;;8.13;5.93;;;6.00;99.90;;;;;;5005719;28;20217;-83
2023/01/16 02:24:29;;;;;;;8.90;5.93;;;6.00;99.90;;;;;;5021665;28;20235;-82
2023/01/16 02:27:42;;;;;;;8.73;6.17;;;5.90;99.90;;;;;;5024139;28;20221;-83
2023/01/16 02:30:52;;;;;;;7.63;5.67;;;5.90;99.90;;;;;;5038684;28;20756;-83
2023/01/16 02:33:55;;;;;;;8.37;5.87;;;5.80;99.90;;;;;;5043599;28;20223;-84
2023/01/16 02:36:53;;;;;;;8.03;5.83;;;5.80;99.90;;;;;;5037793;28;20229;-84
2023/01/16 02:39:49;;;;;;;7.80;5.70;;;5.80;99.90;;;;;;5038446;28;20228;-85
2023/01/16 02:42:45;;;;;;;10.07;6.30;;;5.80;99.90;;;;;;5025906;28;20222;-84
2023/01/16 02:45:43;;;;;;;8.47;6.00;;;5.70;99.90;;;;;;5021326;28;20662;-85
2023/01/16 02:48:40;;;;;;;10.67;6.40;;;5.70;99.90;;;;;;5026331;28;20226;-82
2023/01/16 02:51:37;;;;;;;9.67;5.87;;;5.70;99.90;;;;;;5039096;28;20221;-82
2023/01/16 02:54:33;;;;;;;8.87;6.60;;;5.70;99.90;;;;;;5028921;28;20227;-84
2023/01/16 02:57:26;;;;;;;9.97;6.83;;;5.60;99.90;;;;;;5022665;28;20228;-83
2023/01/16 03:00:19;;;;;;;9.87;6.20;;;5.60;99.90;;;;;;5025257;28;20225;-82
2023/01/16 03:03:31;;;;;;;9.37;6.63;;;5.60;99.90;;;;;;5022319;28;20217;-82
2023/01/16 03:06:43;;;;;;;9.37;6.63;;;5.60;99.90;;;;;;5024231;28;20225;-83
2023/01/16 03:09:40;;;;;;;8.70;6.47;;;5.50;99.90;;;;;;5043866;28;20218;-83
2023/01/16 03:12:35;;;;;;;8.53;6.53;;;5.50;99.90;;;;;;5027275;28;20229;-85
2023/01/16 03:15:29;;;;;;;9.47;6.73;;;5.60;99.90;;;;;;5024899;28;20276;-82
2023/01/16 03:18:30;;;;;;;11.70;7.43;;;5.50;99.90;;;;;;5023469;28;20218;-81
2023/01/16 03:21:30;;;;;;;12.60;7.00;;;5.50;99.90;;;;;;5026062;28;20235;-83
2023/01/16 03:24:31;;;;;;;12.00;6.93;;;5.50;99.90;;;;;;5020317;28;20225;-82
2023/01/16 03:27:30;;;;;;;11.33;6.60;;;5.40;99.90;;;;;;5027149;28;20731;-82
2023/01/16 03:30:27;;;;;;;10.93;7.60;;;5.30;99.90;;;;;;5031093;28;20304;-82
2023/01/16 03:33:27;;;;;;;11.77;7.87;;;5.30;99.90;;;;;;5027950;28;20271;-81
2023/01/16 03:36:21;;;;;;;11.20;7.43;;;5.30;99.90;;;;;;5030636;28;20226;-83
2023/01/16 03:39:13;;;;;;;14.83;8.07;;;5.30;99.90;;;;;;5045045;28;20644;-82
2023/01/16 03:42:08;;;;;;;11.10;7.97;;;5.20;99.90;;;;;;5017752;28;20316;-82
2023/01/16 03:45:02;;;;;;;12.10;7.63;;;5.20;99.90;;;;;;5024373;28;20621;-82
2023/01/16 03:47:57;;;;;;;12.13;7.60;;;5.20;99.90;;;;;;5030964;28;20224;-82
2023/01/16 03:50:51;;;;;;;11.10;7.80;;;5.20;99.90;;;;;;5024154;28;20218;-82
2023/01/16 03:53:46;;;;;;;10.97;7.77;;;5.20;99.90;;;;;;5024263;28;20294;-82
2023/01/16 03:56:41;;;;;;;14.20;8.47;;;5.20;99.90;;;;;;5015292;28;20245;-82
2023/01/16 03:59:32;;;;;;;10.37;7.70;;;5.20;99.90;;;;;;5021373;28;20653;-81
2023/01/16 04:02:25;;;;;;;11.20;7.60;;;5.20;99.90;;;;;;5034328;28;20248;-82
2023/01/16 04:05:17;;;;;;;10.27;7.63;;;5.20;99.90;;;;;;5022679;28;20233;-81
2023/01/16 04:08:12;;;;;;;11.00;7.90;;;5.20;99.90;;;;;;5021657;28;20213;-83
2023/01/16 04:11:01;;;;;;;9.87;7.40;;;5.10;99.90;;;;;;5031085;28;20236;-81
2023/01/16 04:13:53;;;;;;;12.60;7.73;;;5.10;99.90;;;;;;5036127;28;20236;-81
2023/01/16 04:16:45;;;;;;;12.30;7.90;;;5.20;99.90;;;;;;5040416;28;20255;-82
2023/01/16 04:19:34;;;;;;;12.13;7.47;;;5.10;99.90;;;;;;5022753;28;20253;-82
2023/01/16 04:22:25;;;;;;;11.80;7.97;;;5.10;99.90;;;;;;5026220;28;20296;-82
2023/01/16 04:25:14;;;;;;;10.43;7.73;;;5.20;99.90;;;;;;5021509;28;20363;-82
2023/01/16 04:28:03;;;;;;;11.27;7.60;;;5.10;99.90;;;;;;5018548;28;20213;-83
2023/01/16 04:30:52;;;;;;;13.60;8.93;;;5.10;99.90;;;;;;5009372;28;20357;-82
2023/01/16 04:33:42;;;;;;;12.03;7.50;;;5.00;99.90;;;;;;5017692;28;20651;-82
2023/01/16 04:36:32;;;;;;;11.30;7.10;;;5.00;99.90;;;;;;5015777;28;20952;-82
2023/01/16 04:39:21;;;;;;;12.43;7.90;;;5.00;99.90;;;;;;5015614;28;20309;-82
2023/01/16 04:42:10;;;;;;;10.63;7.33;;;5.00;99.90;;;;;;5024289;28;20293;-82
2023/01/16 04:44:59;;;;;;;12.57;8.10;;;4.90;99.90;;;;;;5004295;28;20659;-83
2023/01/16 04:47:49;;;;;;;9.83;7.47;;;4.90;99.90;;;;;;5009920;28;20236;-83
2023/01/16 04:50:39;;;;;;;10.30;7.60;;;4.90;99.90;;;;;;5007197;28;20376;-83
2023/01/16 04:53:28;;;;;;;11.47;7.40;;;4.80;99.90;;;;;;5023554;28;20218;-83
2023/01/16 04:56:17;;;;;;;11.43;7.30;;;4.80;99.90;;;;;;5012315;28;20230;-83
2023/01/16 04:59:06;;;;;;;15.63;7.30;;;4.90;99.90;;;;;;5029705;28;20708;-83
2023/01/16 05:01:55;;;;;;;10.03;7.23;;;4.90;99.90;;;;;;5022495;28;20229;-84
2023/01/16 05:04:44;;;;;;;11.70;7.27;;;4.90;99.90;;;;;;5019533;28;20226;-84
2023/01/16 05:07:34;;;;;;;10.00;7.03;;;4.80;99.90;;;;;;5036841;28;20217;-83
2023/01/16 05:10:23;;;;;;;10.60;6.70;;;4.90;99.90;;;;;;5023343;28;20312;-84
2023/01/16 05:13:11;;;;;;;10.87;7.30;;;4.80;99.90;;;;;;5011452;28;20276;-84
2023/01/16 05:16:00;;;;;;;11.33;7.13;;;4.80;99.90;;;;;;5015094;28;20293;-83
2023/01/16 05:18:49;;;;;;;12.73;7.53;;;4.80;99.90;;;;;;5021886;28;20221;-83
2023/01/16 05:21:38;;;;;;;13.97;7.80;;;4.90;99.90;;;;;;5034574;28;20222;-84
2023/01/16 05:24:28;;;;;;;9.63;6.93;;;4.90;99.90;;;;;;5037659;28;20693;-83
2023/01/16 05:27:17;;;;;;;11.30;6.77;;;4.80;99.90;;;;;;5022993;28;20249;-83
2023/01/16 05:30:08;;;;;;;14.10;7.00;;;4.80;99.90;;;;;;5033106;28;20367;-83
2023/01/16 05:32:56;;;;;;;11.93;6.60;;;4.80;99.90;;;;;;5002730;28;20234;-83
2023/01/16 05:35:46;;;;;;;9.60;6.77;;;4.80;99.90;;;;;;5034440;28;20226;-82
2023/01/16 05:38:35;;;;;;;9.47;6.30;;;4.80;99.90;;;;;;5021825;28;20826;-84
2023/01/16 05:41:25;;;;;;;12.03;6.70;;;4.70;99.90;;;;;;5023175;28;21006;-83
2023/01/16 05:44:14;;;;;;;9.47;6.20;;;4.70;99.90;;;;;;5024362;28;20272;-82
2023/01/16 05:47:04;;;;;;;8.60;6.17;;;4.80;99.90;;;;;;5010015;28;20379;-82
2023/01/16 05:49:53;;;;;;;13.37;7.57;;;4.70;99.90;;;;;;5034245;28;20593;-82
2023/01/16 05:52:42;;;;;;;9.57;6.40;;;4.70;99.90;;;;;;5022308;28;20229;-83
2023/01/16 05:55:31;;;;;;;9.43;6.17;;;4.70;99.90;;;;;;5019557;28;20222;-82
2023/01/16 05:58:22;;;;;;;9.90;6.63;;;4.70;99.90;;;;;;5007264;28;20644;-83
2023/01/16 06:01:10;;;;;;;9.93;6.53;;;4.80;99.90;;;;;;5018435;28;20703;-82
2023/01/16 06:03:59;;;;;;;9.63;6.53;;;4.70;99.90;;;;;;5013804;28;20268;-84
2023/01/16 06:06:49;;;;;;;9.17;5.83;;;4.60;99.90;;;;;;5025965;28;20240;-83
2023/01/16 06:09:38;;;;;;;9.70;5.70;;;4.60;99.90;;;;;;5036025;28;20217;-83
2023/01/16 06:12:26;;;;;;;8.70;5.60;;;4.60;99.90;;;;;;5033734;28;20233;-83
2023/01/16 06:15:17;;;;;;;10.10;6.33;;;4.60;99.90;;;;;;5015698;28;20225;-83
2023/01/16 06:18:06;;;;;;;10.07;6.40;;;4.60;99.90;;;;;;5019649;28;20256;-83
2023/01/16 06:20:55;;;;;;;10.07;6.03;;;4.70;99.90;;;;;;5009438;28;20678;-83
2023/01/16 06:23:44;;;;;;;9.27;5.83;;;4.70;99.90;;;;;;5010044;28;20724;-84
2023/01/16 06:26:33;;;;;;;9.10;5.90;;;4.60;99.90;;;;;;4988411;28;20237;-83
2023/01/16 06:29:22;;;;;;;10.83;6.30;;;4.60;99.90;;;;;;5006503;28;20237;-82
2023/01/16 06:32:12;;;;;;;8.47;5.60;;;4.60;99.90;;;;;;5026779;28;20739;-82
2023/01/16 06:35:01;;;;;;;10.33;6.40;;;4.60;99.90;;;;;;5020208;28;20721;-82
2023/01/16 06:37:50;;;;;;;9.97;6.40;;;4.60;99.90;;;;;;5015762;28;20758;-82
2023/01/16 06:40:39;;;;;;;10.50;6.00;;;4.70;99.90;;;;;;4999533;28;20213;-83
2023/01/16 06:43:29;;;;;;;9.33;6.03;;;4.70;99.90;;;;;;5010534;28;20275;-82
2023/01/16 06:46:18;;;;;;;10.63;6.40;;;4.70;99.90;;;;;;5002291;28;20240;-83
2023/01/16 06:49:08;;;;;;;10.20;5.90;;;4.70;99.90;;;;;;5011287;28;20713;-82
2023/01/16 06:51:57;;;;;;;10.70;6.00;;;4.70;99.90;;;;;;5002707;28;20320;-83
2023/01/16 06:54:55;;;;;;;9.73;6.30;;;4.70;99.90;;;;;;5023697;28;20263;-84
2023/01/16 06:57:44;;;;;;;10.97;6.20;;;4.70;99.90;;;;;;5000456;28;20601;-83
2023/01/16 07:00:34;;;;;;;9.13;5.73;;;4.70;99.90;;;;;;5000938;28;20293;-84
2023/01/16 07:03:24;;;;;;;10.30;5.17;;;4.70;99.90;;;;;;5005862;28;20226;-83
2023/01/16 07:06:14;;;;;;;8.70;5.73;;;4.70;99.90;;;;;;4992276;28;20230;-83
2023/01/16 07:09:04;;;;;;;10.80;5.70;;;4.70;99.90;;;;;;4992029;28;20233;-83
2023/01/16 07:11:53;;;;;;;8.23;5.53;;;4.70;99.90;;;;;;4982223;28;20230;-82
2023/01/16 07:24:08;;;;;;;9.40;6.00;;;4.80;99.90;;;;;;5000577;28;20979;-81
2023/01/16 07:27:01;;;;;;;10.10;6.67;;;4.90;99.90;;;;;;4989504;28;20822;-82
2023/01/16 07:29:50;;;;;;;9.50;5.90;;;4.80;99.90;;;;;;4989621;28;20669;-82
2023/01/16 07:32:39;;;;;;;8.63;5.40;;;4.90;99.90;;;;;;4982905;28;20218;-82
2023/01/16 07:35:29;;;;;;;11.90;6.27;;;4.80;99.90;;;;;;4974125;28;20690;-82
2023/01/16 07:38:18;;;;;;;11.30;5.70;;;4.90;99.90;;;;;;4965563;28;20220;-82
2023/01/16 07:41:08;;;;;;;8.57;5.40;;;4.90;99.90;;;;;;5000484;28;20221;-83
2023/01/16 07:43:57;;;;;;;8.73;5.80;;;4.80;99.90;;;;;;4993612;28;20234;-82
2023/01/16 07:46:46;;;;;;;10.93;6.07;;;4.80;99.90;;;;;;4983216;28;20230;-82
2023/01/16 07:49:35;;;;;;;9.53;5.83;;;4.70;99.90;;;;;;4987059;28;20357;-80
2023/01/16 07:52:25;;;;;;;9.33;5.63;;;4.80;99.90;;;;;;5010905;28;20233;-83
2023/01/16 07:55:15;;;;;;;9.50;5.77;;;4.90;99.90;;;;;;5011996;28;20234;-83
2023/01/16 07:58:05;;;;;;;9.57;5.97;;;4.90;99.90;;;;;;5007748;28;20230;-85
2023/01/16 08:00:55;;;;;;;12.53;6.27;;;4.90;99.90;;;;;;5001386;28;20308;-83
2023/01/16 08:03:44;;;;;;;10.77;6.50;;;5.00;99.90;;;;;;5024539;28;20248;-83
2023/01/16 08:06:33;;;;;;;10.93;6.87;;;4.90;99.90;;;;;;5009741;28;20221;-84
2023/01/16 08:09:32;;;;;;;9.37;6.40;;;5.00;99.90;;;;;;5022241;28;20308;-84
2023/01/16 08:12:21;;;;;;;11.43;7.23;;;5.10;99.90;;;;;;5024555;28;20222;-82
2023/01/16 08:15:14;;;;;;;11.63;7.10;;;5.10;99.90;;;;;;5035993;28;20225;-84
2023/01/16 08:18:14;;;;;;;11.03;6.50;;;5.00;99.90;;;;;;5025387;28;21522;-84
2023/01/16 08:21:03;;;;;;;11.57;7.10;;;4.90;99.90;;;;;;5023480;28;20244;-81
2023/01/16 08:23:53;;;;;;;10.83;6.27;;;5.00;99.90;;;;;;5019436;28;20245;-84
2023/01/16 08:26:43;;;;;;;10.27;6.67;;;5.10;99.90;;;;;;5024399;28;20218;-86
2023/01/16 08:29:33;;;;;;;13.13;6.67;;;5.10;99.90;;;;;;5009153;28;20226;-87
2023/01/16 08:32:23;;;;;;;12.73;7.30;;;5.10;99.90;;;;;;4989576;28;20850;-86
2023/01/16 08:35:12;;;;;;;10.73;7.10;;;5.20;99.90;;;;;;5001946;28;20681;-85
2023/01/16 08:38:00;;;;;;;10.53;7.37;;;5.20;99.90;;;;;;5008453;28;20274;-84
2023/01/16 08:40:49;;;;;;;11.47;7.30;;;5.20;99.90;;;;;;5012754;28;20221;-85
2023/01/16 08:53:15;;;;;;;12.90;6.97;;;5.30;99.90;;;;;;5001973;28;20391;-85
2023/01/16 08:56:05;;;;;;;10.07;6.83;;;5.30;99.90;;;;;;5012065;28;20326;-85
2023/01/16 08:58:54;;;;;;;11.33;7.20;;;5.40;99.90;;;;;;5008135;28;20233;-87
2023/01/16 09:01:43;;;;;;;14.17;7.77;;;5.50;99.90;;;;;;5016039;28;20295;-88
2023/01/16 09:04:32;;;;;;;12.63;7.60;;;5.50;99.90;;;;;;4983689;28;20272;-88
2023/01/16 09:07:22;;;;;;;10.73;7.07;;;5.60;99.90;;;;;;5021444;28;20243;-86
2023/01/16 09:10:12;;;;;;;13.03;8.10;;;5.60;99.90;;;;;;5003455;28;20767;-85
2023/01/16 09:16:08;;;;;;;12.43;7.80;;;5.60;99.90;;;;;;5018431;28;20221;-85
2023/01/16 09:18:57;;;;;;;12.60;7.60;;;5.80;99.90;;;;;;5016459;28;20733;-85
2023/01/16 09:21:46;;;;;;;14.50;7.53;;;5.70;99.90;;;;;;5026290;28;20224;-86
2023/01/16 09:24:37;;;;;;;13.40;8.23;;;5.80;99.90;;;;;;5004969;28;20396;-88
2023/01/16 09:27:26;;;;;;;16.17;8.40;;;5.90;99.90;;;;;;5006845;28;20253;-90
2023/01/16 09:30:15;;;;;;;12.30;7.83;;;5.80;99.90;;;;;;5006808;28;20727;-85
2023/01/16 09:33:04;;;;;;;12.80;7.73;;;5.80;99.90;;;;;;5011139;28;20252;-83
2023/01/16 09:35:53;;;;;;;13.27;8.07;;;5.80;99.90;;;;;;5014712;28;20237;-87
2023/01/16 09:38:42;;;;;;;12.47;8.23;;;5.90;99.90;;;;;;5025439;28;20316;-86
2023/01/16 09:44:46;;;;;;;12.60;8.33;;;5.80;99.90;;;;;;5025234;28;20263;-87
2023/01/16 09:47:37;;;;;;;14.50;8.63;;;5.80;99.90;;;;;;4989990;28;20233;-85
2023/01/16 09:50:32;;;;;;;14.97;8.77;;;5.80;99.90;;;;;;5009342;28;20312;-86
2023/01/16 09:59:50;;;;;;;14.23;8.23;;;6.00;99.90;;;;;;5039170;28;20225;-89
2023/01/16 10:02:40;;;;;;;12.57;8.20;;;6.00;99.90;;;;;;5034893;28;20226;-87
2023/01/16 10:05:34;;;;;;;14.03;8.93;;;6.00;99.90;;;;;;5038937;28;20226;-86
2023/01/16 10:08:31;;;;;;;15.87;8.70;;;6.00;99.90;;;;;;5031011;28;20222;-86
2023/01/16 10:11:29;;;;;;;14.50;9.03;;;6.20;99.90;;;;;;5029501;28;20931;-85
2023/01/16 10:14:40;;;;;;;17.57;9.30;;;6.20;99.90;;;;;;5055384;28;20265;-86
2023/01/16 10:17:37;;;;;;;15.70;8.87;;;6.20;99.90;;;;;;5043242;28;20214;-86
2023/01/16 10:20:38;;;;;;;17.73;9.17;;;6.20;99.90;;;;;;5027133;28;20222;-86
2023/01/16 10:23:48;;;;;;;15.00;8.37;;;6.20;99.90;;;;;;5025630;28;20221;-85
2023/01/16 10:26:47;;;;;;;16.80;9.33;;;6.30;99.90;;;;;;5017424;28;20808;-84
2023/01/16 10:29:42;;;;;;;14.77;8.70;;;6.40;99.90;;;;;;5025089;28;20225;-89
2023/01/16 10:32:35;;;;;;;12.03;8.53;;;6.50;99.90;;;;;;5025968;28;20222;-84
2023/01/16 10:35:27;;;;;;;13.33;8.30;;;6.50;99.90;;;;;;5021397;28;20230;-86
2023/01/16 10:38:29;;;;;;;15.23;8.90;;;6.70;99.90;;;;;;5023317;28;20226;-83
2023/01/16 10:50:47;;;;;;;14.77;8.30;;;6.70;99.90;;;;;;5039125;28;20307;-84
2023/01/16 10:53:37;;;;;;;14.50;8.10;;;6.70;99.90;;;;;;5021996;28;20279;-81
2023/01/16 10:56:26;;;;;;;12.90;8.23;;;6.60;99.90;;;;;;5030330;28;20221;-85
2023/01/16 10:59:17;;;;;;;11.67;7.37;;;6.60;99.90;;;;;;5020930;28;20229;-83
2023/01/16 11:02:19;;;;;;;12.57;7.80;;;6.60;99.90;;;;;;5024806;28;20218;-84
2023/01/16 11:05:28;;;;;;;13.80;8.47;;;6.60;99.90;;;;;;5019985;28;21007;-84
2023/01/16 11:08:20;;;;;;;13.27;8.17;;;6.50;99.90;;;;;;5021056;28;20228;-84
2023/01/16 11:18:27;;;;;;;13.53;8.70;;;6.40;99.90;;;;;;5021276;28;20218;-84
2023/01/16 11:20:45;;;;;;;14.50;8.17;;;6.50;99.90;;;;;;5027576;28;20240;-87
2023/01/16 11:23:39;;;;;;;14.33;8.63;;;6.50;99.90;;;;;;5038607;28;20224;-89
2023/01/16 11:26:30;;;;;;;17.10;9.50;;;6.50;99.90;;;;;;5027791;28;20306;-81
2023/01/16 11:29:23;;;;;;;16.40;10.40;;;6.60;99.90;;;;;;5045869;28;20352;-85
2023/01/16 11:32:14;;;;;;;13.67;9.83;;;6.30;99.90;;;;;;5027563;28;20696;-87
2023/01/16 11:35:03;;;;;;;18.73;11.40;;;6.30;99.90;;;;;;5033884;28;20210;-85
2023/01/16 11:37:54;;;;;;;16.93;11.23;;;6.30;99.90;;;;;;5021994;28;20613;-89
2023/01/16 11:40:48;;;;;;;17.50;11.07;;;6.50;99.90;;;;;;5019307;28;20218;-88
2023/01/16 11:46:45;;;;;;;21.37;12.37;;;6.40;99.90;;;;;;5017521;28;20253;-87
2023/01/16 11:49:37;;;;;;;20.10;12.63;;;6.30;99.90;;;;;;5037882;28;20359;-89
2023/01/16 11:52:28;;;;;;;19.03;12.27;;;6.30;99.90;;;;;;5017783;28;20306;-86
2023/01/16 11:55:18;;;;;;;18.73;12.47;;;6.40;99.90;;;;;;5032524;28;20240;-82
2023/01/16 11:58:13;;;;;;;20.63;13.40;;;6.30;99.90;;;;;;4998150;28;20245;-82
2023/01/16 12:01:10;;;;;;;19.40;13.27;;;6.40;99.90;;;;;;5004245;28;20223;-83
2023/01/16 12:04:13;;;;;;;26.93;13.73;;;6.30;99.90;;;;;;4990383;28;20278;-81
2023/01/16 12:07:11;;;;;;;22.27;12.87;;;6.40;99.90;;;;;;4986479;28;20243;-82
2023/01/16 12:10:05;;;;;;;21.47;13.03;;;6.30;99.90;;;;;;4995754;28;20246;-82
2023/01/16 12:16:21;;;;;;;22.20;14.40;;;6.20;99.90;;;;;;4979268;28;20704;-84
2023/01/16 12:19:43;;;;;;;23.00;15.17;;;6.10;99.90;;;;;;4994232;28;20255;-83
2023/01/16 12:22:48;;;;;;;28.30;16.17;;;6.20;99.90;;;;;;4994533;28;20325;-83
2023/01/16 12:25:43;;;;;;;24.67;15.87;;;6.10;99.90;;;;;;5001812;28;20305;-83
2023/01/16 12:28:43;;;;;;;21.13;15.47;;;6.20;99.90;;;;;;4977122;28;20257;-83
2023/01/16 12:31:50;;;;;;;24.43;16.50;;;6.00;99.90;;;;;;4998657;28;20240;-83
2023/01/16 12:34:52;;;;;;;24.63;16.30;;;6.20;99.90;;;;;;5000579;28;20212;-84
2023/01/16 12:38:05;;;;;;;22.83;16.10;;;6.20;99.90;;;;;;4989151;28;20327;-84
2023/01/16 12:44:49;;;;;;;24.20;17.47;;;6.10;99.90;;;;;;4983677;28;20801;-84
2023/01/16 12:47:54;;;;;;;23.83;17.03;;;6.10;99.90;;;;;;4999842;28;20464;-84
2023/01/16 12:50:58;;;;;;;24.40;17.30;;;6.10;99.90;;;;;;5010953;28;20271;-82
2023/01/16 12:54:09;;;;;;;25.97;16.87;;;6.10;99.90;;;;;;5004949;28;20222;-82
2023/01/16 12:57:17;;;;;;;27.67;17.77;;;6.10;99.90;;;;;;5002197;28;20233;-82
2023/01/16 13:00:13;;;;;;;23.10;16.77;;;6.10;99.90;;;;;;5002200;28;20700;-82
2023/01/16 13:03:12;;;;;;;25.67;17.40;;;6.00;99.90;;;;;;5017946;28;20878;-85
2023/01/16 13:06:03;;;;;;;22.87;17.43;;;5.90;99.90;;;;;;4984654;28;20220;-83
2023/01/16 13:09:00;;;;;;;23.73;16.87;;;6.00;99.90;;;;;;5011437;28;20845;-83
2023/01/16 13:15:11;;;;;;;21.70;16.00;;;5.90;99.90;;;;;;5004289;28;20238;-85
2023/01/16 13:18:08;;;;;;;26.40;17.27;;;6.00;99.90;;;;;;5002373;28;20249;-83
2023/01/16 13:21:00;;;;;;;24.03;16.50;;;5.90;99.90;;;;;;5013243;28;20221;-84
2023/01/16 13:23:55;;;;;;;23.73;17.53;;;5.80;99.90;;;;;;5004307;28;20243;-83
2023/01/16 13:26:57;;;;;;;26.87;18.13;;;5.90;99.90;;;;;;5007221;28;20229;-82
2023/01/16 13:29:51;;;;;;;24.10;17.00;;;5.90;99.90;;;;;;5015455;28;20229;-83
2023/01/16 13:32:47;;;;;;;24.93;19.10;;;5.80;99.90;;;;;;5015262;28;20290;-84
2023/01/16 13:35:45;;;;;;;28.30;19.00;;;5.80;99.90;;;;;;5006571;28;20226;-85
2023/01/16 13:38:46;;;;;;;27.20;18.97;;;5.90;99.90;;;;;;5010774;28;20225;-84
2023/01/16 13:41:39;;;;;;;26.77;19.23;;;5.80;99.90;;;;;;4995137;28;20221;-85
2023/01/16 13:47:43;;;;;;;27.63;19.07;;;5.90;99.90;;;;;;5005968;28;20229;-84
2023/01/16 13:50:36;;;;;;;26.73;19.03;;;6.00;99.90;;;;;;4996701;28;20737;-84
2023/01/16 13:53:26;;;;;;;26.97;19.80;;;6.00;99.90;;;;;;4982490;28;20231;-84
2023/01/16 13:56:20;;;;;;;28.23;19.77;;;6.00;99.90;;;;;;4995720;28;20376;-84
2023/01/16 13:59:17;;;;;;;28.67;19.47;;;5.90;99.90;;;;;;4995233;28;20978;-85
2023/01/16 14:02:28;;;;;;;30.33;19.53;;;5.90;99.90;;;;;;5023737;28;20230;-84
2023/01/16 14:05:26;;;;;;;26.93;19.27;;;6.10;99.90;;;;;;5005786;28;20228;-84
2023/01/16 14:11:57;;;;;;;27.67;18.93;;;6.00;99.90;;;;;;5007833;28;20294;-85
2023/01/16 14:18:16;;;;;;;30.93;20.40;;;6.00;99.90;;;;;;5008741;28;20256;-85
2023/01/16 14:21:14;;;;;;;28.70;19.37;;;6.00;99.90;;;;;;5023364;28;20846;-84
2023/01/16 14:24:05;;;;;;;29.47;19.13;;;6.00;99.90;;;;;;5019491;28;20225;-84
2023/01/16 14:26:58;;;;;;;28.13;19.10;;;6.00;99.90;;;;;;5023884;28;20284;-84
2023/01/16 14:29:51;;;;;;;30.47;19.47;;;6.10;99.90;;;;;;5021533;28;20210;-88
2023/01/16 14:32:46;;;;;;;28.50;19.07;;;6.10;99.90;;;;;;5025189;28;20792;-83
2023/01/16 14:35:46;;;;;;;26.30;17.80;;;6.10;99.90;;;;;;5003239;28;20831;-81
2023/01/16 14:38:36;;;;;;;25.37;16.67;;;6.00;99.90;;;;;;5005689;28;20223;-82
2023/01/16 14:55:15;;;;;;;29.83;19.40;;;5.90;99.90;;;;;;5022412;28;20739;-82
2023/01/16 14:58:05;;;;;;;25.43;18.67;;;6.00;99.90;;;;;;5005485;28;20222;-81
2023/01/16 15:04:02;;;;;;;30.63;20.63;;;6.00;99.90;;;;;;5025385;28;20317;-81
2023/01/16 15:06:57;;;;;;;31.47;20.57;;;5.90;99.90;;;;;;5018344;28;20221;-79
2023/01/16 15:09:46;;;;;;;31.73;20.57;;;5.80;99.90;;;;;;5008361;28;20218;-82
2023/01/16 15:12:41;;;;;;;34.77;21.27;;;5.80;99.90;;;;;;5021417;28;20223;-81
2023/01/16 15:15:33;;;;;;;32.00;21.87;;;5.80;99.90;;;;;;4995697;28;22438;-81
2023/01/16 15:24:57;;;;;;;32.80;22.37;;;5.70;99.90;;;;;;4953419;28;20235;-79
2023/01/16 15:27:56;;;;;;;35.83;24.37;;;5.60;99.90;;;;;;4943871;28;20232;-78
2023/01/16 15:30:50;;;;;;;33.23;24.47;;;5.60;99.90;;;;;;5021071;28;20228;-75
2023/01/16 15:33:49;;;;;;;38.40;24.13;;;5.60;99.90;;;;;;5025445;28;20229;-80
2023/01/16 15:36:40;;;;;;;35.57;24.13;;;5.60;99.90;;;;;;5018321;28;20221;-77
2023/01/16 15:39:40;;;;;;;36.60;25.07;;;5.50;99.90;;;;;;5013965;28;20229;-78
2023/01/16 15:49:01;;;;;;;36.90;25.27;;;5.60;99.90;;;;;;5003701;28;20238;-81
2023/01/16 15:52:07;;;;;;;33.87;24.10;;;5.50;99.90;;;;;;5013653;28;20268;-82
2023/01/16 15:54:59;;;;;;;33.93;23.90;;;5.40;99.90;;;;;;5002823;28;20741;-82
2023/01/16 15:57:50;;;;;;;37.70;24.40;;;5.50;99.90;;;;;;5019196;28;20336;-82
2023/01/16 16:00:41;;;;;;;35.33;24.87;;;5.60;99.90;;;;;;4985271;28;20304;-81
2023/01/16 16:03:37;;;;;;;35.43;23.87;;;5.70;99.90;;;;;;5007462;28;20351;-82
2023/01/16 16:06:30;;;;;;;35.60;24.83;;;5.60;99.90;;;;;;5006881;28;20988;-82
2023/01/16 16:09:21;;;;;;;35.07;24.77;;;5.60;99.90;;;;;;5017564;28;20731;-81
2023/01/16 16:12:10;;;;;;;34.67;25.33;;;5.60;99.90;;;;;;5021982;28;20339;-81
2023/01/16 16:18:32;;;;;;;37.10;25.27;;;5.50;99.90;;;;;;4974682;28;20230;-81
2023/01/16 16:21:22;;;;;;;37.33;25.60;;;5.60;99.90;;;;;;5010408;28;20230;-81
2023/01/16 16:24:14;;;;;;;35.57;24.60;;;5.50;99.90;;;;;;5016937;28;20278;-86
2023/01/16 16:27:07;;;;;;;36.40;24.10;;;5.50;99.90;;;;;;5021584;28;20229;-81
2023/01/16 16:29:56;;;;;;;34.53;23.13;;;5.60;99.90;;;;;;5008237;28;20225;-81
2023/01/16 16:32:45;;;;;;;34.10;23.63;;;5.50;99.90;;;;;;5019967;28;20253;-80
2023/01/16 16:35:36;;;;;;;36.40;24.00;;;5.50;99.90;;;;;;4993487;28;20282;-82
2023/01/16 16:38:29;;;;;;;34.77;24.17;;;5.40;99.90;;;;;;5022039;28;20226;-83
2023/01/16 16:45:10;;;;;;;33.30;22.87;;;5.50;99.90;;;;;;4999213;28;20768;-81
2023/01/16 16:48:29;;;;;;;35.60;24.03;;;5.50;99.90;;;;;;5023348;28;20220;-83
2023/01/16 16:51:27;;;;;;;34.40;23.63;;;5.50;99.90;;;;;;5033821;28;20287;-84
2023/01/16 16:54:18;;;;;;;37.33;24.83;;;5.60;99.90;;;;;;5009240;28;20226;-83